sensor_id;sensor_type;location;lat;lon;timestamp;P1;durP1;ratioP1;P2;durP2;ratioP2
75496;SDS011;64074;47.540;19.072;2024-01-30T00:02:49;50.13;;;20.10;;
75496;SDS011;64074;47.540;19.072;2024-01-30T00:05:58;51.17;;;21.30;;
75496;SDS011;64074;47.540;19.072;2024-01-30T00:09:37;45.30;;;19.73;;
75496;SDS011;64074;47.540;19.072;2024-01-30T00:13:01;48.92;;;21.00;;
75496;SDS011;64074;47.540;19.072;2024-01-30T00:16:33;49.67;;;21.13;;
75496;SDS011;64074;47.540;19.072;2024-01-30T00:19:50;48.20;;;19.70;;
75496;SDS011;64074;47.540;19.072;2024-01-30T00:23:05;42.87;;;19.70;;
75496;SDS011;64074;47.540;19.072;2024-01-30T00:26:29;43.50;;;19.75;;
75496;SDS011;64074;47.540;19.072;2024-01-30T00:29:59;48.50;;;21.48;;
75496;SDS011;64074;47.540;19.072;2024-01-30T00:33:18;50.40;;;21.10;;
75496;SDS011;64074;47.540;19.072;2024-01-30T00:36:28;52.43;;;21.17;;
75496;SDS011;64074;47.540;19.072;2024-01-30T00:39:33;52.40;;;22.17;;
75496;SDS011;64074;47.540;19.072;2024-01-30T00:42:43;55.80;;;21.83;;
75496;SDS011;64074;47.540;19.072;2024-01-30T00:45:58;48.38;;;21.30;;
75496;SDS011;64074;47.540;19.072;2024-01-30T00:49:17;54.42;;;21.50;;
75496;SDS011;64074;47.540;19.072;2024-01-30T00:52:36;54.50;;;22.53;;
75496;SDS011;64074;47.540;19.072;2024-01-30T00:55:54;52.47;;;21.63;;
75496;SDS011;64074;47.540;19.072;2024-01-30T00:58:58;54.20;;;22.67;;
75496;SDS011;64074;47.540;19.072;2024-01-30T01:02:11;56.55;;;22.83;;
75496;SDS011;64074;47.540;19.072;2024-01-30T01:05:18;56.58;;;22.98;;
75496;SDS011;64074;47.540;19.072;2024-01-30T01:08:29;50.37;;;22.23;;
75496;SDS011;64074;47.540;19.072;2024-01-30T01:11:36;53.10;;;22.17;;
75496;SDS011;64074;47.540;19.072;2024-01-30T01:14:45;53.63;;;22.25;;
75496;SDS011;64074;47.540;19.072;2024-01-30T01:18:00;51.65;;;22.38;;
75496;SDS011;64074;47.540;19.072;2024-01-30T01:21:22;54.22;;;21.92;;
75496;SDS011;64074;47.540;19.072;2024-01-30T01:28:45;50.47;;;21.53;;
75496;SDS011;64074;47.540;19.072;2024-01-30T01:31:52;53.20;;;22.17;;
75496;SDS011;64074;47.540;19.072;2024-01-30T01:35:01;54.55;;;22.17;;
75496;SDS011;64074;47.540;19.072;2024-01-30T01:38:12;49.42;;;21.90;;
75496;SDS011;64074;47.540;19.072;2024-01-30T01:41:21;52.13;;;22.13;;
75496;SDS011;64074;47.540;19.072;2024-01-30T01:44:38;51.60;;;22.13;;
75496;SDS011;64074;47.540;19.072;2024-01-30T01:47:59;51.88;;;21.92;;
75496;SDS011;64074;47.540;19.072;2024-01-30T01:51:26;49.80;;;22.15;;
75496;SDS011;64074;47.540;19.072;2024-01-30T01:54:43;55.60;;;20.75;;
75496;SDS011;64074;47.540;19.072;2024-01-30T01:57:47;55.47;;;21.60;;
75496;SDS011;64074;47.540;19.072;2024-01-30T02:00:51;56.07;;;22.40;;
75496;SDS011;64074;47.540;19.072;2024-01-30T02:04:03;51.33;;;23.10;;
75496;SDS011;64074;47.540;19.072;2024-01-30T02:07:14;56.88;;;22.85;;
75496;SDS011;64074;47.540;19.072;2024-01-30T02:10:40;54.08;;;21.80;;
75496;SDS011;64074;47.540;19.072;2024-01-30T02:14:19;47.70;;;20.60;;
75496;SDS011;64074;47.540;19.072;2024-01-30T02:17:53;50.63;;;21.47;;
75496;SDS011;64074;47.540;19.072;2024-01-30T02:21:04;48.30;;;21.52;;
75496;SDS011;64074;47.540;19.072;2024-01-30T02:24:15;50.08;;;21.63;;
75496;SDS011;64074;47.540;19.072;2024-01-30T02:27:40;49.83;;;20.55;;
75496;SDS011;64074;47.540;19.072;2024-01-30T02:30:43;52.10;;;22.27;;
75496;SDS011;64074;47.540;19.072;2024-01-30T02:33:47;55.70;;;21.50;;
75496;SDS011;64074;47.540;19.072;2024-01-30T02:36:58;50.67;;;21.30;;
75496;SDS011;64074;47.540;19.072;2024-01-30T02:40:21;52.88;;;21.67;;
75496;SDS011;64074;47.540;19.072;2024-01-30T02:43:39;49.17;;;21.77;;
75496;SDS011;64074;47.540;19.072;2024-01-30T02:46:56;51.13;;;21.30;;
75496;SDS011;64074;47.540;19.072;2024-01-30T02:50:15;50.87;;;20.33;;
75496;SDS011;64074;47.540;19.072;2024-01-30T02:53:35;57.95;;;21.13;;
75496;SDS011;64074;47.540;19.072;2024-01-30T02:57:06;50.60;;;20.05;;
75496;SDS011;64074;47.540;19.072;2024-01-30T03:00:19;54.65;;;23.35;;
75496;SDS011;64074;47.540;19.072;2024-01-30T03:03:32;49.73;;;21.90;;
75496;SDS011;64074;47.540;19.072;2024-01-30T03:06:38;47.20;;;20.50;;
75496;SDS011;64074;47.540;19.072;2024-01-30T03:09:53;48.83;;;20.90;;
75496;SDS011;64074;47.540;19.072;2024-01-30T03:13:10;48.88;;;19.52;;
75496;SDS011;64074;47.540;19.072;2024-01-30T03:16:38;45.97;;;20.20;;
75496;SDS011;64074;47.540;19.072;2024-01-30T03:19:54;44.80;;;19.43;;
75496;SDS011;64074;47.540;19.072;2024-01-30T03:23:17;48.70;;;20.37;;
75496;SDS011;64074;47.540;19.072;2024-01-30T03:26:37;48.05;;;19.20;;
75496;SDS011;64074;47.540;19.072;2024-01-30T03:29:47;49.38;;;21.15;;
75496;SDS011;64074;47.540;19.072;2024-01-30T03:33:05;51.08;;;19.95;;
75496;SDS011;64074;47.540;19.072;2024-01-30T03:36:10;45.03;;;19.40;;
75496;SDS011;64074;47.540;19.072;2024-01-30T03:39:17;48.30;;;19.97;;
75496;SDS011;64074;47.540;19.072;2024-01-30T03:42:26;50.58;;;19.77;;
75496;SDS011;64074;47.540;19.072;2024-01-30T03:45:30;52.55;;;20.75;;
75496;SDS011;64074;47.540;19.072;2024-01-30T03:48:41;73.85;;;27.88;;
75496;SDS011;64074;47.540;19.072;2024-01-30T03:52:09;46.33;;;19.80;;
75496;SDS011;64074;47.540;19.072;2024-01-30T03:55:26;51.27;;;20.70;;
75496;SDS011;64074;47.540;19.072;2024-01-30T03:58:44;47.67;;;19.20;;
75496;SDS011;64074;47.540;19.072;2024-01-30T04:02:05;47.55;;;20.13;;
75496;SDS011;64074;47.540;19.072;2024-01-30T04:05:19;47.17;;;19.80;;
75496;SDS011;64074;47.540;19.072;2024-01-30T04:08:50;49.87;;;19.60;;
75496;SDS011;64074;47.540;19.072;2024-01-30T04:12:14;50.40;;;20.33;;
75496;SDS011;64074;47.540;19.072;2024-01-30T04:15:43;47.05;;;19.08;;
75496;SDS011;64074;47.540;19.072;2024-01-30T04:19:00;46.22;;;18.77;;
75496;SDS011;64074;47.540;19.072;2024-01-30T04:22:21;50.60;;;19.92;;
75496;SDS011;64074;47.540;19.072;2024-01-30T04:25:45;50.97;;;21.23;;
75496;SDS011;64074;47.540;19.072;2024-01-30T04:29:10;52.33;;;21.23;;
75496;SDS011;64074;47.540;19.072;2024-01-30T04:32:37;52.58;;;21.35;;
75496;SDS011;64074;47.540;19.072;2024-01-30T04:35:52;49.50;;;21.20;;
75496;SDS011;64074;47.540;19.072;2024-01-30T04:39:10;57.30;;;22.15;;
75496;SDS011;64074;47.540;19.072;2024-01-30T04:42:32;63.50;;;22.43;;
75496;SDS011;64074;47.540;19.072;2024-01-30T04:45:48;53.70;;;22.33;;
75496;SDS011;64074;47.540;19.072;2024-01-30T04:49:16;52.58;;;20.88;;
75496;SDS011;64074;47.540;19.072;2024-01-30T04:52:41;48.50;;;20.13;;
75496;SDS011;64074;47.540;19.072;2024-01-30T04:55:54;53.08;;;21.85;;
75496;SDS011;64074;47.540;19.072;2024-01-30T04:59:02;52.63;;;20.73;;
75496;SDS011;64074;47.540;19.072;2024-01-30T05:02:14;52.47;;;21.57;;
75496;SDS011;64074;47.540;19.072;2024-01-30T05:05:34;50.72;;;21.77;;
75496;SDS011;64074;47.540;19.072;2024-01-30T05:08:45;52.00;;;20.45;;
75496;SDS011;64074;47.540;19.072;2024-01-30T05:11:54;49.85;;;20.98;;
75496;SDS011;64074;47.540;19.072;2024-01-30T05:15:29;51.53;;;21.33;;
75496;SDS011;64074;47.540;19.072;2024-01-30T05:18:51;50.60;;;21.17;;
75496;SDS011;64074;47.540;19.072;2024-01-30T05:22:08;49.10;;;21.67;;
75496;SDS011;64074;47.540;19.072;2024-01-30T05:25:13;50.10;;;20.17;;
75496;SDS011;64074;47.540;19.072;2024-01-30T05:28:22;51.92;;;20.90;;
75496;SDS011;64074;47.540;19.072;2024-01-30T05:31:36;50.57;;;20.20;;
75496;SDS011;64074;47.540;19.072;2024-01-30T05:34:42;52.30;;;20.40;;
75496;SDS011;64074;47.540;19.072;2024-01-30T05:37:51;50.15;;;20.17;;
75496;SDS011;64074;47.540;19.072;2024-01-30T05:41:00;47.10;;;19.75;;
75496;SDS011;64074;47.540;19.072;2024-01-30T05:44:09;48.60;;;18.80;;
75496;SDS011;64074;47.540;19.072;2024-01-30T05:47:29;49.73;;;19.93;;
75496;SDS011;64074;47.540;19.072;2024-01-30T05:50:58;48.03;;;20.47;;
75496;SDS011;64074;47.540;19.072;2024-01-30T05:54:16;48.75;;;18.98;;
75496;SDS011;64074;47.540;19.072;2024-01-30T05:57:47;48.95;;;20.30;;
75496;SDS011;64074;47.540;19.072;2024-01-30T06:00:57;45.58;;;19.08;;
75496;SDS011;64074;47.540;19.072;2024-01-30T06:04:03;51.00;;;20.03;;
75496;SDS011;64074;47.540;19.072;2024-01-30T06:07:08;46.93;;;19.33;;
75496;SDS011;64074;47.540;19.072;2024-01-30T06:10:12;51.75;;;20.20;;
75496;SDS011;64074;47.540;19.072;2024-01-30T06:13:22;49.15;;;19.90;;
75496;SDS011;64074;47.540;19.072;2024-01-30T06:16:31;49.92;;;19.85;;
75496;SDS011;64074;47.540;19.072;2024-01-30T06:19:39;51.53;;;20.07;;
75496;SDS011;64074;47.540;19.072;2024-01-30T06:22:49;49.63;;;19.90;;
75496;SDS011;64074;47.540;19.072;2024-01-30T06:25:59;53.85;;;22.42;;
75496;SDS011;64074;47.540;19.072;2024-01-30T06:29:16;47.28;;;19.88;;
75496;SDS011;64074;47.540;19.072;2024-01-30T06:32:45;51.42;;;20.67;;
75496;SDS011;64074;47.540;19.072;2024-01-30T06:35:49;49.50;;;20.27;;
75496;SDS011;64074;47.540;19.072;2024-01-30T06:38:58;47.83;;;20.33;;
75496;SDS011;64074;47.540;19.072;2024-01-30T06:42:10;49.83;;;21.42;;
75496;SDS011;64074;47.540;19.072;2024-01-30T06:45:26;45.22;;;19.45;;
75496;SDS011;64074;47.540;19.072;2024-01-30T06:48:36;54.83;;;22.02;;
75496;SDS011;64074;47.540;19.072;2024-01-30T06:51:54;51.43;;;20.93;;
75496;SDS011;64074;47.540;19.072;2024-01-30T06:55:04;68.33;;;26.63;;
75496;SDS011;64074;47.540;19.072;2024-01-30T06:58:15;48.47;;;20.20;;
75496;SDS011;64074;47.540;19.072;2024-01-30T07:01:21;49.13;;;21.02;;
75496;SDS011;64074;47.540;19.072;2024-01-30T07:04:47;45.38;;;19.88;;
75496;SDS011;64074;47.540;19.072;2024-01-30T07:08:19;45.30;;;19.17;;
75496;SDS011;64074;47.540;19.072;2024-01-30T07:11:44;47.43;;;19.63;;
75496;SDS011;64074;47.540;19.072;2024-01-30T07:15:00;47.55;;;19.40;;
75496;SDS011;64074;47.540;19.072;2024-01-30T07:18:14;48.15;;;20.83;;
75496;SDS011;64074;47.540;19.072;2024-01-30T07:21:27;50.03;;;20.45;;
75496;SDS011;64074;47.540;19.072;2024-01-30T07:24:35;51.63;;;20.57;;
75496;SDS011;64074;47.540;19.072;2024-01-30T07:27:46;52.57;;;22.33;;
75496;SDS011;64074;47.540;19.072;2024-01-30T07:30:55;53.30;;;21.85;;
75496;SDS011;64074;47.540;19.072;2024-01-30T07:34:06;51.45;;;20.58;;
75496;SDS011;64074;47.540;19.072;2024-01-30T07:37:28;49.63;;;21.30;;
75496;SDS011;64074;47.540;19.072;2024-01-30T07:40:53;51.60;;;21.37;;
75496;SDS011;64074;47.540;19.072;2024-01-30T07:44:09;51.87;;;21.23;;
75496;SDS011;64074;47.540;19.072;2024-01-30T07:47:19;47.10;;;20.10;;
75496;SDS011;64074;47.540;19.072;2024-01-30T07:50:32;54.67;;;21.33;;
75496;SDS011;64074;47.540;19.072;2024-01-30T07:53:42;52.22;;;22.58;;
75496;SDS011;64074;47.540;19.072;2024-01-30T07:56:53;52.80;;;22.63;;
75496;SDS011;64074;47.540;19.072;2024-01-30T08:00:18;49.20;;;22.43;;
75496;SDS011;64074;47.540;19.072;2024-01-30T08:03:30;52.85;;;22.58;;
75496;SDS011;64074;47.540;19.072;2024-01-30T08:06:55;57.85;;;23.95;;
75496;SDS011;64074;47.540;19.072;2024-01-30T08:10:21;54.85;;;24.77;;
75496;SDS011;64074;47.540;19.072;2024-01-30T08:19:06;53.40;;;21.70;;
75496;SDS011;64074;47.540;19.072;2024-01-30T08:22:21;51.20;;;22.75;;
75496;SDS011;64074;47.540;19.072;2024-01-30T08:25:32;52.03;;;23.48;;
75496;SDS011;64074;47.540;19.072;2024-01-30T08:28:43;52.58;;;23.80;;
75496;SDS011;64074;47.540;19.072;2024-01-30T08:31:54;55.10;;;23.77;;
75496;SDS011;64074;47.540;19.072;2024-01-30T08:35:05;58.27;;;24.03;;
75496;SDS011;64074;47.540;19.072;2024-01-30T08:38:17;58.75;;;24.92;;
75496;SDS011;64074;47.540;19.072;2024-01-30T08:41:25;56.00;;;24.52;;
75496;SDS011;64074;47.540;19.072;2024-01-30T08:44:36;59.08;;;24.85;;
75496;SDS011;64074;47.540;19.072;2024-01-30T08:47:52;57.00;;;25.13;;
75496;SDS011;64074;47.540;19.072;2024-01-30T08:51:16;55.37;;;25.20;;
75496;SDS011;64074;47.540;19.072;2024-01-30T08:54:40;62.97;;;25.85;;
75496;SDS011;64074;47.540;19.072;2024-01-30T08:58:04;59.13;;;25.02;;
75496;SDS011;64074;47.540;19.072;2024-01-30T09:01:35;55.75;;;24.90;;
75496;SDS011;64074;47.540;19.072;2024-01-30T09:05:23;60.80;;;25.67;;
75496;SDS011;64074;47.540;19.072;2024-01-30T09:08:45;50.43;;;22.90;;
75496;SDS011;64074;47.540;19.072;2024-01-30T09:12:07;52.55;;;22.50;;
75496;SDS011;64074;47.540;19.072;2024-01-30T09:15:39;46.35;;;21.65;;
75496;SDS011;64074;47.540;19.072;2024-01-30T09:19:06;48.20;;;21.52;;
75496;SDS011;64074;47.540;19.072;2024-01-30T09:22:36;53.77;;;24.97;;
75496;SDS011;64074;47.540;19.072;2024-01-30T09:25:48;45.67;;;20.23;;
75496;SDS011;64074;47.540;19.072;2024-01-30T09:28:59;52.83;;;23.25;;
75496;SDS011;64074;47.540;19.072;2024-01-30T09:32:13;51.22;;;20.80;;
75496;SDS011;64074;47.540;19.072;2024-01-30T09:35:38;46.25;;;20.63;;
75496;SDS011;64074;47.540;19.072;2024-01-30T09:39:04;54.73;;;22.13;;
75496;SDS011;64074;47.540;19.072;2024-01-30T09:42:32;46.27;;;21.03;;
75496;SDS011;64074;47.540;19.072;2024-01-30T09:45:54;43.33;;;20.63;;
75496;SDS011;64074;47.540;19.072;2024-01-30T09:49:18;53.25;;;21.00;;
75496;SDS011;64074;47.540;19.072;2024-01-30T09:52:56;47.83;;;20.95;;
75496;SDS011;64074;47.540;19.072;2024-01-30T09:56:12;47.67;;;20.30;;
75496;SDS011;64074;47.540;19.072;2024-01-30T09:59:33;43.83;;;21.13;;
75496;SDS011;64074;47.540;19.072;2024-01-30T10:02:42;48.70;;;21.52;;
75496;SDS011;64074;47.540;19.072;2024-01-30T10:05:52;44.10;;;20.52;;
75496;SDS011;64074;47.540;19.072;2024-01-30T10:09:04;46.13;;;20.65;;
75496;SDS011;64074;47.540;19.072;2024-01-30T10:12:14;44.87;;;20.03;;
75496;SDS011;64074;47.540;19.072;2024-01-30T10:15:29;46.20;;;20.57;;
75496;SDS011;64074;47.540;19.072;2024-01-30T10:18:41;44.20;;;20.30;;
75496;SDS011;64074;47.540;19.072;2024-01-30T10:21:52;43.40;;;20.63;;
75496;SDS011;64074;47.540;19.072;2024-01-30T10:25:06;47.78;;;19.83;;
75496;SDS011;64074;47.540;19.072;2024-01-30T10:28:38;43.10;;;20.17;;
75496;SDS011;64074;47.540;19.072;2024-01-30T10:31:59;136.53;;;37.10;;
75496;SDS011;64074;47.540;19.072;2024-01-30T10:35:12;41.85;;;17.00;;
75496;SDS011;64074;47.540;19.072;2024-01-30T10:38:24;38.92;;;18.35;;
75496;SDS011;64074;47.540;19.072;2024-01-30T10:41:47;42.03;;;19.58;;
75496;SDS011;64074;47.540;19.072;2024-01-30T10:45:07;32.80;;;15.90;;
75496;SDS011;64074;47.540;19.072;2024-01-30T10:48:34;34.97;;;17.70;;
75496;SDS011;64074;47.540;19.072;2024-01-30T10:51:49;42.28;;;19.35;;
75496;SDS011;64074;47.540;19.072;2024-01-30T10:55:03;42.05;;;19.23;;
75496;SDS011;64074;47.540;19.072;2024-01-30T10:58:31;44.72;;;19.20;;
75496;SDS011;64074;47.540;19.072;2024-01-30T11:01:42;37.80;;;18.33;;
75496;SDS011;64074;47.540;19.072;2024-01-30T11:05:07;40.33;;;19.57;;
75496;SDS011;64074;47.540;19.072;2024-01-30T11:08:26;38.35;;;19.23;;
75496;SDS011;64074;47.540;19.072;2024-01-30T11:11:59;42.85;;;20.05;;
75496;SDS011;64074;47.540;19.072;2024-01-30T11:15:30;32.65;;;15.02;;
75496;SDS011;64074;47.540;19.072;2024-01-30T11:19:10;31.87;;;15.10;;
75496;SDS011;64074;47.540;19.072;2024-01-30T11:22:48;32.00;;;14.63;;
75496;SDS011;64074;47.540;19.072;2024-01-30T11:26:00;31.15;;;14.57;;
75496;SDS011;64074;47.540;19.072;2024-01-30T11:29:13;34.20;;;15.05;;
75496;SDS011;64074;47.540;19.072;2024-01-30T11:32:39;30.63;;;14.77;;
75496;SDS011;64074;47.540;19.072;2024-01-30T11:35:58;32.53;;;15.60;;
75496;SDS011;64074;47.540;19.072;2024-01-30T11:39:33;31.13;;;14.83;;
75496;SDS011;64074;47.540;19.072;2024-01-30T11:43:11;30.17;;;13.63;;
75496;SDS011;64074;47.540;19.072;2024-01-30T11:46:24;39.65;;;13.45;;
75496;SDS011;64074;47.540;19.072;2024-01-30T11:49:42;33.45;;;12.93;;
75496;SDS011;64074;47.540;19.072;2024-01-30T11:52:54;28.73;;;13.33;;
75496;SDS011;64074;47.540;19.072;2024-01-30T11:56:12;28.93;;;12.47;;
75496;SDS011;64074;47.540;19.072;2024-01-30T11:59:18;22.63;;;11.77;;
75496;SDS011;64074;47.540;19.072;2024-01-30T12:02:28;26.15;;;12.32;;
75496;SDS011;64074;47.540;19.072;2024-01-30T12:05:58;25.88;;;12.52;;
75496;SDS011;64074;47.540;19.072;2024-01-30T12:09:16;26.87;;;13.17;;
75496;SDS011;64074;47.540;19.072;2024-01-30T12:12:36;26.90;;;13.23;;
75496;SDS011;64074;47.540;19.072;2024-01-30T12:15:55;27.35;;;13.45;;
75496;SDS011;64074;47.540;19.072;2024-01-30T12:19:10;24.10;;;11.52;;
75496;SDS011;64074;47.540;19.072;2024-01-30T12:22:21;24.75;;;11.10;;
75496;SDS011;64074;47.540;19.072;2024-01-30T12:25:33;23.27;;;11.30;;
75496;SDS011;64074;47.540;19.072;2024-01-30T12:28:48;25.10;;;10.97;;
75496;SDS011;64074;47.540;19.072;2024-01-30T12:32:03;22.55;;;11.38;;
75496;SDS011;64074;47.540;19.072;2024-01-30T12:35:17;28.55;;;11.57;;
75496;SDS011;64074;47.540;19.072;2024-01-30T12:38:40;26.85;;;11.30;;
75496;SDS011;64074;47.540;19.072;2024-01-30T12:41:57;23.60;;;11.60;;
75496;SDS011;64074;47.540;19.072;2024-01-30T12:45:14;33.90;;;10.03;;
75496;SDS011;64074;47.540;19.072;2024-01-30T12:48:24;26.60;;;10.20;;
75496;SDS011;64074;47.540;19.072;2024-01-30T12:51:35;22.63;;;10.63;;
75496;SDS011;64074;47.540;19.072;2024-01-30T12:54:50;23.67;;;10.75;;
75496;SDS011;64074;47.540;19.072;2024-01-30T12:58:10;20.77;;;10.07;;
75496;SDS011;64074;47.540;19.072;2024-01-30T13:01:37;19.97;;;8.80;;
75496;SDS011;64074;47.540;19.072;2024-01-30T13:05:17;25.40;;;12.65;;
75496;SDS011;64074;47.540;19.072;2024-01-30T13:08:41;22.85;;;11.25;;
75496;SDS011;64074;47.540;19.072;2024-01-30T13:12:00;23.77;;;9.90;;
75496;SDS011;64074;47.540;19.072;2024-01-30T13:15:12;17.90;;;7.90;;
75496;SDS011;64074;47.540;19.072;2024-01-30T13:18:50;21.90;;;8.20;;
75496;SDS011;64074;47.540;19.072;2024-01-30T13:22:02;15.25;;;7.68;;
75496;SDS011;64074;47.540;19.072;2024-01-30T13:25:22;19.33;;;8.07;;
75496;SDS011;64074;47.540;19.072;2024-01-30T13:28:45;15.45;;;7.88;;
75496;SDS011;64074;47.540;19.072;2024-01-30T13:31:59;17.20;;;8.13;;
75496;SDS011;64074;47.540;19.072;2024-01-30T13:35:24;12.67;;;6.77;;
75496;SDS011;64074;47.540;19.072;2024-01-30T13:38:35;17.48;;;7.28;;
75496;SDS011;64074;47.540;19.072;2024-01-30T13:41:47;14.43;;;6.18;;
75496;SDS011;64074;47.540;19.072;2024-01-30T13:44:58;12.18;;;5.70;;
75496;SDS011;64074;47.540;19.072;2024-01-30T13:48:09;11.10;;;4.90;;
75496;SDS011;64074;47.540;19.072;2024-01-30T13:51:36;12.47;;;5.13;;
75496;SDS011;64074;47.540;19.072;2024-01-30T13:55:11;15.32;;;4.82;;
75496;SDS011;64074;47.540;19.072;2024-01-30T13:58:29;12.15;;;5.53;;
75496;SDS011;64074;47.540;19.072;2024-01-30T14:01:40;35.55;;;7.53;;
75496;SDS011;64074;47.540;19.072;2024-01-30T14:04:53;13.03;;;5.33;;
75496;SDS011;64074;47.540;19.072;2024-01-30T14:08:18;14.30;;;5.37;;
75496;SDS011;64074;47.540;19.072;2024-01-30T14:11:48;11.05;;;5.57;;
75496;SDS011;64074;47.540;19.072;2024-01-30T14:14:55;9.90;;;5.15;;
75496;SDS011;64074;47.540;19.072;2024-01-30T14:18:03;10.30;;;4.97;;
75496;SDS011;64074;47.540;19.072;2024-01-30T14:21:08;11.83;;;6.07;;
75496;SDS011;64074;47.540;19.072;2024-01-30T14:24:13;15.63;;;5.70;;
75496;SDS011;64074;47.540;19.072;2024-01-30T14:27:17;15.25;;;5.78;;
75496;SDS011;64074;47.540;19.072;2024-01-30T14:30:28;16.08;;;5.43;;
75496;SDS011;64074;47.540;19.072;2024-01-30T14:33:40;10.80;;;5.72;;
75496;SDS011;64074;47.540;19.072;2024-01-30T14:36:48;12.73;;;5.20;;
75496;SDS011;64074;47.540;19.072;2024-01-30T14:39:56;13.80;;;5.90;;
75496;SDS011;64074;47.540;19.072;2024-01-30T14:43:01;14.63;;;7.68;;
75496;SDS011;64074;47.540;19.072;2024-01-30T14:46:12;12.55;;;5.90;;
75496;SDS011;64074;47.540;19.072;2024-01-30T14:49:23;15.40;;;7.35;;
75496;SDS011;64074;47.540;19.072;2024-01-30T14:52:38;17.33;;;7.00;;
75496;SDS011;64074;47.540;19.072;2024-01-30T14:55:52;14.63;;;6.93;;
75496;SDS011;64074;47.540;19.072;2024-01-30T14:59:06;18.80;;;7.25;;
75496;SDS011;64074;47.540;19.072;2024-01-30T15:02:16;15.60;;;7.30;;
75496;SDS011;64074;47.540;19.072;2024-01-30T15:05:34;18.15;;;7.22;;
75496;SDS011;64074;47.540;19.072;2024-01-30T15:08:52;16.00;;;7.67;;
75496;SDS011;64074;47.540;19.072;2024-01-30T15:12:14;14.87;;;7.03;;
75496;SDS011;64074;47.540;19.072;2024-01-30T15:15:32;17.25;;;7.32;;
75496;SDS011;64074;47.540;19.072;2024-01-30T15:18:42;16.08;;;7.78;;
75496;SDS011;64074;47.540;19.072;2024-01-30T15:21:54;20.02;;;8.63;;
75496;SDS011;64074;47.540;19.072;2024-01-30T15:24:58;17.77;;;7.80;;
75496;SDS011;64074;47.540;19.072;2024-01-30T15:28:09;17.90;;;6.77;;
75496;SDS011;64074;47.540;19.072;2024-01-30T15:31:28;22.63;;;7.88;;
75496;SDS011;64074;47.540;19.072;2024-01-30T15:34:49;16.67;;;7.32;;
75496;SDS011;64074;47.540;19.072;2024-01-30T15:38:04;17.92;;;8.27;;
75496;SDS011;64074;47.540;19.072;2024-01-30T15:41:25;22.17;;;10.97;;
75496;SDS011;64074;47.540;19.072;2024-01-30T15:44:39;19.50;;;8.33;;
75496;SDS011;64074;47.540;19.072;2024-01-30T15:47:44;24.35;;;9.18;;
75496;SDS011;64074;47.540;19.072;2024-01-30T15:50:48;26.52;;;9.82;;
75496;SDS011;64074;47.540;19.072;2024-01-30T15:53:58;19.75;;;8.65;;
75496;SDS011;64074;47.540;19.072;2024-01-30T15:57:19;21.13;;;8.63;;
75496;SDS011;64074;47.540;19.072;2024-01-30T16:00:40;19.10;;;9.17;;
75496;SDS011;64074;47.540;19.072;2024-01-30T16:04:04;19.35;;;9.68;;
75496;SDS011;64074;47.540;19.072;2024-01-30T16:07:14;23.85;;;9.60;;
75496;SDS011;64074;47.540;19.072;2024-01-30T16:10:32;27.17;;;12.63;;
75496;SDS011;64074;47.540;19.072;2024-01-30T16:13:45;22.40;;;10.23;;
75496;SDS011;64074;47.540;19.072;2024-01-30T16:16:54;25.37;;;9.70;;
75496;SDS011;64074;47.540;19.072;2024-01-30T16:20:04;23.45;;;9.48;;
75496;SDS011;64074;47.540;19.072;2024-01-30T16:23:19;28.63;;;10.95;;
75496;SDS011;64074;47.540;19.072;2024-01-30T16:26:26;22.80;;;10.20;;
75496;SDS011;64074;47.540;19.072;2024-01-30T16:29:36;25.87;;;11.10;;
75496;SDS011;64074;47.540;19.072;2024-01-30T16:32:50;25.10;;;11.13;;
75496;SDS011;64074;47.540;19.072;2024-01-30T16:36:00;24.48;;;11.07;;
75496;SDS011;64074;47.540;19.072;2024-01-30T16:39:10;23.70;;;10.48;;
75496;SDS011;64074;47.540;19.072;2024-01-30T16:42:14;22.70;;;10.57;;
75496;SDS011;64074;47.540;19.072;2024-01-30T16:45:18;21.63;;;10.73;;
75496;SDS011;64074;47.540;19.072;2024-01-30T16:48:28;28.63;;;10.80;;
75496;SDS011;64074;47.540;19.072;2024-01-30T16:51:46;43.03;;;14.43;;
75496;SDS011;64074;47.540;19.072;2024-01-30T16:54:54;30.88;;;12.80;;
75496;SDS011;64074;47.540;19.072;2024-01-30T16:57:57;26.95;;;10.57;;
75496;SDS011;64074;47.540;19.072;2024-01-30T17:01:03;25.97;;;12.03;;
75496;SDS011;64074;47.540;19.072;2024-01-30T17:04:07;54.83;;;15.77;;
75496;SDS011;64074;47.540;19.072;2024-01-30T17:07:17;34.97;;;14.48;;
75496;SDS011;64074;47.540;19.072;2024-01-30T17:10:34;37.05;;;14.63;;
75496;SDS011;64074;47.540;19.072;2024-01-30T17:14:00;35.28;;;15.23;;
75496;SDS011;64074;47.540;19.072;2024-01-30T17:17:08;38.03;;;16.33;;
75496;SDS011;64074;47.540;19.072;2024-01-30T17:20:25;40.47;;;17.60;;
75496;SDS011;64074;47.540;19.072;2024-01-30T17:23:33;37.50;;;17.23;;
75496;SDS011;64074;47.540;19.072;2024-01-30T17:26:44;39.45;;;16.58;;
75496;SDS011;64074;47.540;19.072;2024-01-30T17:29:53;41.78;;;18.55;;
75496;SDS011;64074;47.540;19.072;2024-01-30T17:32:56;41.73;;;19.03;;
75496;SDS011;64074;47.540;19.072;2024-01-30T17:36:06;42.37;;;18.43;;
75496;SDS011;64074;47.540;19.072;2024-01-30T17:39:10;41.65;;;18.52;;
75496;SDS011;64074;47.540;19.072;2024-01-30T17:42:20;40.85;;;18.98;;
75496;SDS011;64074;47.540;19.072;2024-01-30T17:45:54;49.53;;;20.35;;
75496;SDS011;64074;47.540;19.072;2024-01-30T17:49:15;45.57;;;20.17;;
75496;SDS011;64074;47.540;19.072;2024-01-30T17:52:41;48.23;;;20.07;;
75496;SDS011;64074;47.540;19.072;2024-01-30T17:56:03;46.00;;;20.05;;
75496;SDS011;64074;47.540;19.072;2024-01-30T17:59:13;48.30;;;21.67;;
75496;SDS011;64074;47.540;19.072;2024-01-30T18:02:23;46.28;;;21.50;;
75496;SDS011;64074;47.540;19.072;2024-01-30T18:05:59;54.60;;;21.63;;
75496;SDS011;64074;47.540;19.072;2024-01-30T18:09:09;52.57;;;20.83;;
75496;SDS011;64074;47.540;19.072;2024-01-30T18:12:24;54.05;;;22.52;;
75496;SDS011;64074;47.540;19.072;2024-01-30T18:15:29;47.05;;;21.08;;
75496;SDS011;64074;47.540;19.072;2024-01-30T18:18:39;48.85;;;21.88;;
75496;SDS011;64074;47.540;19.072;2024-01-30T18:21:46;51.40;;;21.17;;
75496;SDS011;64074;47.540;19.072;2024-01-30T18:24:50;51.53;;;21.43;;
75496;SDS011;64074;47.540;19.072;2024-01-30T18:28:00;51.72;;;23.20;;
75496;SDS011;64074;47.540;19.072;2024-01-30T18:31:05;52.88;;;22.63;;
75496;SDS011;64074;47.540;19.072;2024-01-30T18:34:09;52.22;;;22.42;;
75496;SDS011;64074;47.540;19.072;2024-01-30T18:37:21;55.83;;;22.93;;
75496;SDS011;64074;47.540;19.072;2024-01-30T18:40:34;51.23;;;21.90;;
75496;SDS011;64074;47.540;19.072;2024-01-30T18:43:47;52.00;;;22.65;;
75496;SDS011;64074;47.540;19.072;2024-01-30T18:47:01;51.22;;;21.95;;
75496;SDS011;64074;47.540;19.072;2024-01-30T18:50:09;55.63;;;22.63;;
75496;SDS011;64074;47.540;19.072;2024-01-30T18:53:19;57.53;;;22.33;;
75496;SDS011;64074;47.540;19.072;2024-01-30T18:56:41;54.60;;;22.23;;
75496;SDS011;64074;47.540;19.072;2024-01-30T19:00:04;53.88;;;22.27;;
75496;SDS011;64074;47.540;19.072;2024-01-30T19:03:24;51.95;;;21.73;;